This is the latest recevied weather packets stored in our database for station/object SP9TWP-3. If no packets are shown the sender has not sent any weather packets the latest 10 day(s).
| Time | Temp. | Humidity | Pressure | Rain* | Wind** | Luminosity | Snow |
|---|---|---|---|---|---|---|---|
| 1777723273 | 25.56° C | 21% | 1021.9 hPa | - | - | - | - |
| 1777722373 | 26.11° C | 19% | 1022.1 hPa | - | - | - | - |
| 1777721472 | 23.89° C | 22% | 1022.4 hPa | - | - | - | - |
| 1777720572 | 23.89° C | 21% | 1022.5 hPa | - | - | - | - |
| 1777719672 | 23.33° C | 24% | 1022.6 hPa | - | - | - | - |
| 1777718772 | 23.89° C | 23% | 1022.7 hPa | - | - | - | - |
| 1777717872 | 21.67° C | 26% | 1023 hPa | - | - | - | - |
| 1777716972 | 21.67° C | 25% | 1023 hPa | - | - | - | - |
| 1777716071 | 21.67° C | 26% | 1023.1 hPa | - | - | - | - |
| 1777715171 | 21.11° C | 28% | 1023.3 hPa | - | - | - | - |
| 1777714271 | 21.11° C | 29% | 1023.4 hPa | - | - | - | - |
| 1777713371 | 20.56° C | 30% | 1023.5 hPa | - | - | - | - |
| 1777712471 | 20.56° C | 34% | 1023.6 hPa | - | - | - | - |
| 1777711571 | 20° C | 35% | 1023.8 hPa | - | - | - | - |
| 1777710670 | 21.11° C | 33% | 1023.8 hPa | - | - | - | - |
| 1777709770 | 19.44° C | 34% | 1023.9 hPa | - | - | - | - |
| 1777708870 | 20° C | 35% | 1024 hPa | - | - | - | - |
| 1777707970 | 20° C | 36% | 1024 hPa | - | - | - | - |
| 1777707070 | 20° C | 37% | 1024.1 hPa | - | - | - | - |
| 1777706170 | 20° C | 36% | 1024.1 hPa | - | - | - | - |
| 1777705269 | 20° C | 38% | 1024.1 hPa | - | - | - | - |
| 1777704369 | 18.33° C | 41% | 1024.1 hPa | - | - | - | - |
| 1777703469 | 17.78° C | 44% | 1024.1 hPa | - | - | - | - |
| 1777702569 | 17.22° C | 47% | 1024.2 hPa | - | - | - | - |
| 1777701669 | 16.11° C | 49% | 1024.2 hPa | - | - | - | - |
* Rain since midnight (hover to see other rain measurements)
** Current wind speed in m/s (hover to see current wind gust speed)